Time;durP1;ratioP1;P1;durP2;ratioP2;P2;SDS_P1;SDS_P2;PMS_P1;PMS_P2;Temp;Humidity;BMP_temperature;BMP_pressure;BME280_temperature;BME280_humidity;BME280_pressure;Samples;Min_cycle;Max_cycle;Signal;HPM_P1;HPM_P2
2023/04/13 00:00:11;;;;;;;1.40;0.60;;;11.50;70.20;;;;;;2312733;55;20950;-70
2023/04/13 00:02:37;;;;;;;0.93;0.32;;;11.50;70.30;;;;;;2314574;55;20997;-72
2023/04/13 00:05:09;;;;;;;1.23;0.50;;;11.50;70.30;;;;;;2309026;54;20911;-71
2023/04/13 00:07:37;;;;;;;1.45;0.50;;;11.50;70.20;;;;;;2552169;54;21003;-71
2023/04/13 00:10:05;;;;;;;1.80;0.50;;;11.40;70.20;;;;;;2551547;54;20923;-75
2023/04/13 00:12:32;;;;;;;1.25;0.40;;;11.40;70.20;;;;;;2551510;54;20982;-73
2023/04/13 00:14:59;;;;;;;1.35;0.50;;;11.40;70.20;;;;;;2551893;54;22073;-72
2023/04/13 00:17:27;;;;;;;1.62;0.50;;;11.40;70.20;;;;;;2311738;55;21058;-71
2023/04/13 00:19:56;;;;;;;2.58;0.60;;;11.40;70.20;;;;;;2552004;54;20959;-72
2023/04/13 00:22:29;;;;;;;1.12;0.40;;;11.30;70.10;;;;;;2311990;55;21586;-71
2023/04/13 00:24:56;;;;;;;1.23;0.50;;;11.30;70.00;;;;;;2312907;55;20991;-73
2023/04/13 00:27:25;;;;;;;1.42;0.60;;;11.30;70.00;;;;;;2551547;54;21142;-72
2023/04/13 00:29:55;;;;;;;2.67;0.60;;;11.30;70.10;;;;;;2549047;54;21556;-72
2023/04/13 00:32:24;;;;;;;4.07;0.68;;;11.30;70.00;;;;;;2310155;54;20955;-71
2023/04/13 00:34:50;;;;;;;1.25;0.43;;;11.20;69.80;;;;;;2312091;55;20951;-71
2023/04/13 00:37:17;;;;;;;1.35;0.50;;;11.30;70.00;;;;;;2308865;54;21009;-73
2023/04/13 00:39:46;;;;;;;1.45;0.30;;;11.20;70.00;;;;;;2518779;53;21028;-72
2023/04/13 00:42:16;;;;;;;1.23;0.40;;;11.20;69.90;;;;;;2552035;54;20975;-71
2023/04/13 00:44:43;;;;;;;3.12;0.50;;;11.20;69.90;;;;;;2550825;53;20959;-74
2023/04/13 00:47:11;;;;;;;1.27;0.50;;;11.10;69.80;;;;;;2311951;55;21038;-71
2023/04/13 00:49:37;;;;;;;1.45;0.57;;;11.10;69.80;;;;;;2311946;54;20943;-72
2023/04/13 00:52:03;;;;;;;0.80;0.40;;;11.10;69.80;;;;;;2311751;55;20966;-73
2023/04/13 00:54:31;;;;;;;1.75;0.50;;;11.10;69.80;;;;;;2312146;55;21476;-71
2023/04/13 00:56:58;;;;;;;1.12;0.50;;;11.10;69.70;;;;;;2552397;54;20963;-73
2023/04/13 00:59:28;;;;;;;1.80;0.47;;;11.00;69.60;;;;;;2312528;54;21440;-71
2023/04/13 01:01:57;;;;;;;2.15;0.60;;;11.00;69.40;;;;;;2311337;54;21045;-71
2023/04/13 01:04:30;;;;;;;1.90;0.60;;;11.00;69.60;;;;;;2551319;54;21508;-71
2023/04/13 01:08:21;;;;;;;;;;;11.00;69.50;;;;;;2555275;53;20975;-70
2023/04/13 01:11:12;;;;;;;1.70;0.60;;;10.90;68.40;;;;;;2307269;55;20136;-72
2023/04/13 01:14:05;;;;;;;1.27;0.47;;;10.90;68.80;;;;;;2306543;54;20923;-72
2023/04/13 01:16:41;;;;;;;2.05;0.80;;;10.90;69.00;;;;;;2307501;55;21887;-71
2023/04/13 01:19:10;;;;;;;1.37;0.40;;;10.80;69.20;;;;;;2309122;55;20985;-74
2023/04/13 01:21:36;;;;;;;1.45;0.52;;;10.80;69.40;;;;;;2541717;54;22033;-72
2023/04/13 01:24:23;;;;;;;1.50;0.47;;;10.80;69.50;;;;;;2304467;54;20939;-73
2023/04/13 01:27:11;;;;;;;2.58;0.65;;;10.70;69.10;;;;;;2546859;53;21125;-72
2023/04/13 01:29:38;;;;;;;2.20;0.60;;;10.70;69.40;;;;;;2542382;53;21082;-70
2023/04/13 01:32:05;;;;;;;1.75;0.60;;;10.70;69.40;;;;;;2545991;54;21345;-72
2023/04/13 01:34:32;;;;;;;3.10;0.70;;;10.70;69.50;;;;;;2546081;54;20939;-71
2023/04/13 01:37:00;;;;;;;1.87;0.43;;;10.60;69.30;;;;;;2310474;55;21443;-73
2023/04/13 01:39:30;;;;;;;1.50;0.50;;;10.60;69.30;;;;;;2545584;54;20995;-73
2023/04/13 01:41:59;;;;;;;2.65;0.65;;;10.60;69.40;;;;;;2552496;53;20939;-71
2023/04/13 01:44:27;;;;;;;2.65;0.60;;;10.60;69.40;;;;;;2312402;55;20986;-72
2023/04/13 01:46:55;;;;;;;1.98;0.50;;;10.50;69.20;;;;;;2312262;55;22141;-73
2023/04/13 01:49:24;;;;;;;1.52;0.50;;;10.50;69.20;;;;;;2551967;54;20931;-72
2023/04/13 01:51:51;;;;;;;2.35;0.88;;;10.50;69.20;;;;;;2314543;54;20959;-71
2023/04/13 01:54:19;;;;;;;3.62;0.60;;;10.50;69.20;;;;;;2312806;54;20947;-71
2023/04/13 01:56:45;;;;;;;1.25;0.40;;;10.50;69.20;;;;;;2291939;54;21027;-72
2023/04/13 01:59:15;;;;;;;1.42;0.50;;;10.40;69.10;;;;;;2537434;53;21001;-69
2023/04/13 02:01:42;;;;;;;2.67;0.60;;;10.40;69.20;;;;;;2302203;55;20949;-72
2023/04/13 02:04:08;;;;;;;1.25;0.47;;;10.40;69.20;;;;;;2304088;55;21540;-72
2023/04/13 02:06:38;;;;;;;1.23;0.47;;;10.40;69.20;;;;;;2304350;55;21025;-71
2023/04/13 02:09:05;;;;;;;1.40;0.50;;;10.40;69.20;;;;;;2303484;55;21819;-73
2023/04/13 02:11:32;;;;;;;1.75;0.40;;;10.30;69.20;;;;;;2303221;55;20953;-72
2023/04/13 02:13:59;;;;;;;2.78;0.50;;;10.30;69.20;;;;;;2541295;53;20949;-71
2023/04/13 02:16:25;;;;;;;2.00;0.55;;;10.30;69.10;;;;;;2541533;54;20973;-70
2023/04/13 02:18:51;;;;;;;2.05;0.50;;;10.30;69.20;;;;;;2303247;55;21072;-71
2023/04/13 02:21:21;;;;;;;0.98;0.47;;;10.30;69.20;;;;;;2302175;55;21096;-72
2023/04/13 02:23:48;;;;;;;2.53;0.60;;;10.20;69.00;;;;;;2302982;54;21005;-72
2023/04/13 02:26:20;;;;;;;2.97;0.70;;;10.20;69.10;;;;;;2303549;55;20949;-71
2023/04/13 02:28:49;;;;;;;2.40;0.50;;;10.20;69.20;;;;;;2540757;54;20925;-72
2023/04/13 02:31:18;;;;;;;1.15;0.52;;;10.20;69.20;;;;;;2537909;53;20945;-71
2023/04/13 02:33:45;;;;;;;4.62;0.73;;;10.20;69.30;;;;;;2547905;53;20925;-73
2023/04/13 02:36:11;;;;;;;1.65;0.57;;;10.10;69.20;;;;;;2550461;54;21440;-71
2023/04/13 02:38:37;;;;;;;2.65;0.80;;;10.10;69.20;;;;;;2552221;53;21404;-71
2023/04/13 02:41:04;;;;;;;1.40;0.55;;;10.10;69.30;;;;;;2552331;53;21877;-72
2023/04/13 02:43:30;;;;;;;2.65;0.70;;;10.10;69.30;;;;;;2550502;53;20999;-69
2023/04/13 02:45:56;;;;;;;1.42;0.57;;;10.10;69.20;;;;;;2552485;53;21091;-71
2023/04/13 02:48:22;;;;;;;1.42;0.50;;;10.10;69.80;;;;;;2309620;54;21063;-72
2023/04/13 02:50:49;;;;;;;2.28;0.62;;;10.10;69.30;;;;;;2307289;54;21040;-73
2023/04/13 02:53:20;;;;;;;1.73;0.62;;;10.10;69.30;;;;;;2311031;54;20962;-70
2023/04/13 02:55:49;;;;;;;1.70;0.68;;;10.00;69.20;;;;;;2311559;54;20952;-72
2023/04/13 02:58:15;;;;;;;1.73;0.60;;;10.00;69.30;;;;;;2312846;55;20982;-71
2023/04/13 03:00:41;;;;;;;3.37;0.75;;;10.00;69.30;;;;;;2311395;55;21439;-70
2023/04/13 03:03:07;;;;;;;2.12;0.50;;;10.00;69.30;;;;;;2312592;54;20951;-71
2023/04/13 03:05:34;;;;;;;2.22;0.68;;;10.00;69.40;;;;;;2312300;55;20947;-70
2023/04/13 03:08:01;;;;;;;2.62;0.70;;;10.00;69.40;;;;;;2311909;55;21078;-70
2023/04/13 03:10:30;;;;;;;2.03;0.60;;;10.00;69.40;;;;;;2313067;54;20972;-71
2023/04/13 03:12:57;;;;;;;2.53;0.60;;;9.90;70.40;;;;;;2311519;54;21075;-72
2023/04/13 03:15:25;;;;;;;2.00;0.62;;;10.00;69.40;;;;;;2311668;54;21520;-70
2023/04/13 03:17:51;;;;;;;2.12;0.68;;;10.00;69.40;;;;;;2551670;54;20983;-73
2023/04/13 03:20:21;;;;;;;2.72;0.60;;;9.90;70.40;;;;;;2315546;55;21014;-73
2023/04/13 03:22:47;;;;;;;2.20;0.60;;;10.00;69.40;;;;;;2546914;54;20987;-71
2023/04/13 03:25:15;;;;;;;2.12;0.52;;;10.00;69.40;;;;;;2552404;54;20995;-72
2023/04/13 03:27:41;;;;;;;2.92;0.68;;;10.00;69.40;;;;;;2313023;54;20990;-72
2023/04/13 03:30:08;;;;;;;2.00;0.47;;;10.00;69.40;;;;;;2298319;54;21059;-73
2023/04/13 03:32:35;;;;;;;2.12;0.40;;;9.90;70.50;;;;;;2545840;54;21019;-71
2023/04/13 03:35:01;;;;;;;1.85;0.70;;;9.90;70.50;;;;;;2540122;54;20987;-69
2023/04/13 03:37:31;;;;;;;1.30;0.40;;;9.90;70.50;;;;;;2292694;54;21114;-72
2023/04/13 03:39:57;;;;;;;2.30;0.50;;;9.90;70.50;;;;;;2551241;54;20952;-72
2023/04/13 03:42:24;;;;;;;3.05;0.43;;;10.00;69.60;;;;;;2311618;55;21353;-74
2023/04/13 03:44:51;;;;;;;3.08;0.70;;;10.00;69.50;;;;;;2551692;53;20975;-71
2023/04/13 03:47:17;;;;;;;2.22;0.45;;;10.00;69.60;;;;;;2312654;54;20984;-72
2023/04/13 03:49:43;;;;;;;1.48;0.70;;;10.00;69.60;;;;;;2309729;54;20962;-72
2023/04/13 03:52:10;;;;;;;1.52;0.50;;;10.00;69.60;;;;;;2312581;55;21338;-70
2023/04/13 03:54:38;;;;;;;2.42;0.98;;;10.00;69.60;;;;;;2312065;55;21010;-71
2023/04/13 03:57:04;;;;;;;3.28;0.60;;;10.00;69.50;;;;;;2552529;53;20939;-72
2023/04/13 03:59:32;;;;;;;2.22;0.70;;;10.00;69.50;;;;;;2550658;53;21033;-73
2023/04/13 04:01:58;;;;;;;2.03;0.52;;;10.10;69.60;;;;;;2309297;54;21031;-72
2023/04/13 04:04:25;;;;;;;3.78;0.98;;;10.00;69.50;;;;;;2552561;54;20979;-71
2023/04/13 04:06:52;;;;;;;3.28;0.80;;;10.10;69.60;;;;;;2312372;55;21487;-72
2023/04/13 04:09:18;;;;;;;2.50;0.57;;;10.10;69.60;;;;;;2552010;54;20979;-71
2023/04/13 04:11:45;;;;;;;2.47;0.68;;;10.10;69.60;;;;;;2551532;54;20959;-71
2023/04/13 04:14:11;;;;;;;1.42;0.43;;;10.10;69.50;;;;;;2314210;55;20980;-72
2023/04/13 04:16:38;;;;;;;3.40;0.70;;;10.10;69.50;;;;;;2310830;54;20921;-72
2023/04/13 04:19:04;;;;;;;1.65;0.50;;;10.10;69.60;;;;;;2547905;53;20945;-72
2023/04/13 04:21:33;;;;;;;3.03;0.62;;;10.10;69.60;;;;;;2310641;54;20948;-70
2023/04/13 04:24:00;;;;;;;3.53;0.85;;;10.10;69.60;;;;;;2312258;55;20967;-72
2023/04/13 04:26:27;;;;;;;3.62;0.70;;;10.20;69.70;;;;;;2311937;55;20986;-73
2023/04/13 04:29:00;;;;;;;2.28;0.68;;;10.20;69.70;;;;;;2311950;55;21489;-73
2023/04/13 04:31:30;;;;;;;1.95;0.70;;;10.20;69.60;;;;;;2546718;53;21154;-72
2023/04/13 04:34:03;;;;;;;2.85;0.73;;;10.20;69.60;;;;;;2551072;53;21056;-70
2023/04/13 04:36:30;;;;;;;3.30;0.60;;;10.20;69.60;;;;;;2547366;53;20990;-72
2023/04/13 04:39:01;;;;;;;8.35;2.60;;;10.20;69.60;;;;;;2311797;55;21435;-74
2023/04/13 04:41:29;;;;;;;9.18;3.22;;;10.20;69.50;;;;;;2552244;54;21102;-72
2023/04/13 04:43:56;;;;;;;7.68;1.92;;;10.20;69.50;;;;;;2549756;54;20936;-74
2023/04/13 04:46:26;;;;;;;8.02;1.30;;;10.20;69.50;;;;;;2549156;54;20987;-73
2023/04/13 04:48:53;;;;;;;5.40;1.35;;;10.30;69.50;;;;;;2545849;54;20942;-71
2023/04/13 04:51:23;;;;;;;2.92;1.15;;;10.20;69.30;;;;;;2548840;54;21822;-70
2023/04/13 04:53:52;;;;;;;4.30;0.90;;;10.30;69.40;;;;;;2534113;53;21524;-72
2023/04/13 04:56:18;;;;;;;3.78;0.73;;;10.30;69.50;;;;;;2312319;55;20947;-70
2023/04/13 04:58:46;;;;;;;3.78;0.70;;;10.30;69.60;;;;;;2311947;55;21038;-74
2023/04/13 05:01:13;;;;;;;4.05;0.80;;;10.30;69.70;;;;;;2552058;54;20944;-72
2023/04/13 05:03:39;;;;;;;3.97;1.08;;;10.30;69.50;;;;;;2311825;54;21050;-74
2023/04/13 05:06:06;;;;;;;2.15;0.70;;;10.30;69.40;;;;;;2551409;54;20915;-72
2023/04/13 05:08:34;;;;;;;3.35;0.82;;;10.30;69.40;;;;;;2311388;55;20999;-71
2023/04/13 05:11:05;;;;;;;3.12;0.77;;;10.30;69.40;;;;;;2314951;55;21872;-70
2023/04/13 05:13:35;;;;;;;2.30;0.73;;;10.30;69.40;;;;;;2291674;55;21016;-71
2023/04/13 05:16:09;;;;;;;3.72;0.57;;;10.30;69.40;;;;;;2549004;53;20959;-70
2023/04/13 05:18:43;;;;;;;5.22;1.00;;;10.30;69.40;;;;;;2311787;54;21030;-69
2023/04/13 05:21:09;;;;;;;4.03;0.82;;;10.30;69.30;;;;;;2312184;55;21067;-73
2023/04/13 05:23:38;;;;;;;2.45;0.68;;;10.30;69.40;;;;;;2311897;55;20943;-71
2023/04/13 05:26:05;;;;;;;3.37;0.70;;;10.30;69.40;;;;;;2314904;54;21770;-72
2023/04/13 05:28:33;;;;;;;3.55;0.70;;;10.10;69.00;;;;;;2308429;54;20974;-72
2023/04/13 05:31:02;;;;;;;4.62;0.93;;;10.30;69.20;;;;;;2551443;53;21144;-72
2023/04/13 05:33:29;;;;;;;3.80;0.77;;;10.30;69.10;;;;;;2312089;55;21915;-73
2023/04/13 05:35:56;;;;;;;2.85;0.77;;;10.30;69.20;;;;;;2551213;53;20983;-75
2023/04/13 05:38:23;;;;;;;5.22;0.90;;;10.30;69.10;;;;;;2312136;55;21006;-71
2023/04/13 05:40:49;;;;;;;3.33;1.00;;;10.30;69.80;;;;;;2550202;54;21029;-72
2023/04/13 05:43:18;;;;;;;2.50;0.70;;;10.30;69.10;;;;;;2309038;54;20939;-74
2023/04/13 05:45:45;;;;;;;5.22;0.90;;;10.40;69.20;;;;;;2311493;55;21781;-71
2023/04/13 05:48:12;;;;;;;3.90;0.93;;;10.40;69.30;;;;;;2552124;54;20975;-72
2023/04/13 05:50:39;;;;;;;2.47;0.60;;;10.40;69.20;;;;;;2310743;55;21777;-71
2023/04/13 05:53:06;;;;;;;4.85;1.15;;;10.40;69.30;;;;;;2311269;55;20934;-71
2023/04/13 05:55:32;;;;;;;3.87;1.00;;;10.40;69.30;;;;;;2311806;55;21496;-71
2023/04/13 05:58:04;;;;;;;5.18;0.90;;;10.40;69.30;;;;;;2550071;53;21057;-72
2023/04/13 06:00:34;;;;;;;4.37;0.70;;;10.40;69.20;;;;;;2307875;54;20949;-73
2023/04/13 06:03:01;;;;;;;5.50;0.77;;;10.40;69.30;;;;;;2310864;54;20943;-73
2023/04/13 06:05:28;;;;;;;6.32;1.42;;;10.40;69.40;;;;;;2310364;54;21587;-72
2023/04/13 06:07:55;;;;;;;4.85;1.00;;;10.50;69.40;;;;;;2299149;54;21655;-70
2023/04/13 06:10:21;;;;;;;4.25;0.77;;;10.50;69.40;;;;;;2313235;54;21500;-73
2023/04/13 06:12:49;;;;;;;4.47;1.00;;;10.50;69.30;;;;;;2313223;54;20990;-70
2023/04/13 06:15:19;;;;;;;4.43;1.20;;;10.50;69.20;;;;;;2313203;54;20943;-70
2023/04/13 06:17:45;;;;;;;7.10;1.00;;;10.50;69.00;;;;;;2550472;54;21903;-72
2023/04/13 06:20:12;;;;;;;6.35;0.75;;;10.50;69.10;;;;;;2311026;55;21007;-72
2023/04/13 06:22:38;;;;;;;2.08;0.62;;;10.60;69.30;;;;;;2310931;55;20959;-71
2023/04/13 06:25:05;;;;;;;7.45;1.00;;;10.60;69.40;;;;;;2311724;55;21968;-71
2023/04/13 06:27:32;;;;;;;3.15;0.80;;;10.60;69.30;;;;;;2311526;55;21006;-72
2023/04/13 06:29:59;;;;;;;2.83;0.65;;;10.60;69.20;;;;;;2311304;55;20998;-70
2023/04/13 06:32:26;;;;;;;3.92;0.75;;;10.60;69.20;;;;;;2551444;53;21038;-70
2023/04/13 06:34:52;;;;;;;4.00;0.77;;;10.60;69.10;;;;;;2550576;53;20967;-72
2023/04/13 06:37:19;;;;;;;2.87;0.80;;;10.60;69.10;;;;;;2311964;55;21406;-71
2023/04/13 06:39:45;;;;;;;5.60;0.80;;;10.60;69.10;;;;;;2311356;55;21476;-71
2023/04/13 06:42:12;;;;;;;4.65;1.00;;;10.70;69.20;;;;;;2311268;55;20927;-71
2023/04/13 06:44:38;;;;;;;4.53;0.85;;;10.70;69.10;;;;;;2550850;54;20939;-71
2023/04/13 06:47:06;;;;;;;4.00;0.82;;;10.70;69.20;;;;;;2551777;53;20979;-73
2023/04/13 06:49:33;;;;;;;3.80;0.88;;;10.70;69.20;;;;;;2551647;54;20982;-71
2023/04/13 06:52:00;;;;;;;6.03;1.20;;;10.70;69.30;;;;;;2311699;55;21480;-71
2023/04/13 06:54:26;;;;;;;4.25;1.10;;;10.70;69.20;;;;;;2312864;54;20980;-72
2023/04/13 06:56:52;;;;;;;5.15;1.10;;;10.80;69.30;;;;;;2547744;53;21007;-70
2023/04/13 06:59:19;;;;;;;6.62;1.17;;;10.80;69.30;;;;;;2311847;54;20991;-70
2023/04/13 07:01:45;;;;;;;6.35;1.15;;;10.80;69.20;;;;;;2310948;54;21055;-73
2023/04/13 07:04:12;;;;;;;4.95;0.90;;;10.80;69.20;;;;;;2551765;54;21455;-74
2023/04/13 07:06:38;;;;;;;7.15;1.00;;;10.80;69.20;;;;;;2312630;54;21014;-71
2023/04/13 07:09:04;;;;;;;4.60;1.00;;;10.80;69.20;;;;;;2311540;55;21944;-72
2023/04/13 07:11:31;;;;;;;3.45;0.82;;;10.80;69.30;;;;;;2313155;54;20973;-72
2023/04/13 07:13:57;;;;;;;5.35;0.90;;;10.80;69.40;;;;;;2547930;53;20988;-75
2023/04/13 07:16:24;;;;;;;4.75;1.00;;;10.80;69.60;;;;;;2311675;55;20975;-73
2023/04/13 07:18:51;;;;;;;7.95;1.27;;;10.90;69.60;;;;;;2551166;54;21030;-72
2023/04/13 07:21:17;;;;;;;5.78;1.30;;;10.90;69.80;;;;;;2311617;55;21019;-72
2023/04/13 07:23:45;;;;;;;4.57;0.90;;;10.90;69.80;;;;;;2311038;55;20975;-73
2023/04/13 07:26:13;;;;;;;7.82;1.30;;;10.90;69.80;;;;;;2317523;54;21041;-73
2023/04/13 07:28:40;;;;;;;5.00;1.00;;;11.00;70.00;;;;;;2296487;54;21762;-73
2023/04/13 07:31:06;;;;;;;4.05;0.80;;;11.00;70.10;;;;;;2551190;53;21264;-71
2023/04/13 07:33:33;;;;;;;3.00;0.65;;;11.10;70.30;;;;;;2551665;53;21881;-72
2023/04/13 07:35:59;;;;;;;6.15;1.05;;;11.10;70.40;;;;;;2310977;54;21039;-72
2023/04/13 07:38:26;;;;;;;5.75;1.00;;;11.20;70.40;;;;;;2551598;54;20986;-73
2023/04/13 07:40:52;;;;;;;6.22;1.27;;;11.20;70.10;;;;;;2311600;55;21106;-74
2023/04/13 07:43:19;;;;;;;4.45;1.15;;;11.30;70.20;;;;;;2548027;53;20968;-71
2023/04/13 07:45:46;;;;;;;5.05;1.00;;;11.40;70.10;;;;;;2310646;54;20967;-71
2023/04/13 07:48:13;;;;;;;5.95;1.30;;;11.30;70.00;;;;;;2551565;54;20994;-71
2023/04/13 07:50:42;;;;;;;5.87;0.98;;;11.40;70.10;;;;;;2311897;55;20967;-72
2023/04/13 07:53:08;;;;;;;6.25;1.10;;;11.30;69.90;;;;;;2311327;55;20987;-71
2023/04/13 07:55:37;;;;;;;5.00;1.00;;;11.50;70.10;;;;;;2311044;54;21482;-73
2023/04/13 07:58:03;;;;;;;3.62;1.12;;;11.50;70.00;;;;;;2311147;54;20954;-73
2023/04/13 08:00:30;;;;;;;6.18;1.12;;;11.50;70.20;;;;;;2312395;55;21090;-72
2023/04/13 08:02:58;;;;;;;4.18;0.90;;;11.60;70.40;;;;;;2550690;53;20966;-70
2023/04/13 08:05:24;;;;;;;4.53;0.93;;;11.70;70.70;;;;;;2301700;54;21052;-74
2023/04/13 08:07:51;;;;;;;5.95;1.15;;;11.70;70.70;;;;;;2529789;54;21031;-74
2023/04/13 08:10:17;;;;;;;5.68;1.30;;;11.70;70.60;;;;;;2546373;53;20989;-73
2023/04/13 08:12:43;;;;;;;6.50;1.65;;;11.80;70.40;;;;;;2311542;55;21574;-70
2023/04/13 08:15:11;;;;;;;6.50;1.20;;;11.90;70.40;;;;;;2551678;54;20945;-72
2023/04/13 08:17:37;;;;;;;7.37;1.30;;;11.90;70.30;;;;;;2311944;55;21058;-71
2023/04/13 08:20:09;;;;;;;6.95;1.40;;;12.00;70.20;;;;;;2311587;54;21878;-72
2023/04/13 08:22:36;;;;;;;7.18;1.50;;;12.00;70.10;;;;;;2311871;55;21070;-72
2023/04/13 08:25:04;;;;;;;4.45;0.95;;;12.10;70.10;;;;;;2551425;54;21429;-71
2023/04/13 08:27:30;;;;;;;5.18;1.25;;;12.10;70.20;;;;;;2311442;55;20983;-72
2023/04/13 08:30:00;;;;;;;7.43;1.55;;;12.20;70.40;;;;;;2313726;54;20957;-74
2023/04/13 08:32:27;;;;;;;8.05;1.17;;;12.20;70.50;;;;;;2548438;54;20991;-76
2023/04/13 08:34:54;;;;;;;9.68;1.50;;;12.30;70.80;;;;;;2551222;53;20963;-76
2023/04/13 08:37:20;;;;;;;7.35;1.20;;;12.30;70.80;;;;;;2551173;54;21840;-73
2023/04/13 08:39:48;;;;;;;7.47;1.52;;;12.40;71.00;;;;;;2312242;55;20986;-73
2023/04/13 08:42:14;;;;;;;8.38;2.17;;;12.50;71.20;;;;;;2551157;53;20945;-73
2023/04/13 08:44:41;;;;;;;10.88;2.72;;;12.50;71.40;;;;;;2549817;54;20973;-72
2023/04/13 08:47:10;;;;;;;5.03;1.60;;;12.60;71.50;;;;;;2548885;54;21796;-71
2023/04/13 08:49:39;;;;;;;8.52;1.35;;;12.80;71.90;;;;;;2312284;54;20964;-73
2023/04/13 08:52:08;;;;;;;6.80;1.35;;;12.80;72.10;;;;;;2311576;54;21943;-72
2023/04/13 08:54:34;;;;;;;6.28;1.37;;;12.90;72.50;;;;;;2314211;54;20962;-72
2023/04/13 08:57:01;;;;;;;4.57;1.00;;;13.00;72.70;;;;;;2308052;54;21824;-73
2023/04/13 08:59:28;;;;;;;5.82;1.37;;;13.10;72.70;;;;;;2547302;53;21109;-71
2023/04/13 09:01:54;;;;;;;5.80;1.10;;;13.30;72.90;;;;;;2312180;55;21913;-72
2023/04/13 09:04:22;;;;;;;5.47;1.83;;;13.40;72.60;;;;;;2312714;55;21010;-72
2023/04/13 09:06:50;;;;;;;3.72;1.40;;;13.50;72.80;;;;;;2312587;54;20933;-73
2023/04/13 09:09:17;;;;;;;6.28;1.10;;;13.60;72.70;;;;;;2310717;54;20946;-73
2023/04/13 09:11:44;;;;;;;4.80;1.50;;;13.70;72.10;;;;;;2552817;53;21059;-72
2023/04/13 09:14:11;;;;;;;5.00;1.30;;;13.80;72.30;;;;;;2312112;54;21004;-73
2023/04/13 09:16:42;;;;;;;5.25;1.00;;;13.90;72.30;;;;;;2551646;53;20927;-72
2023/04/13 09:19:09;;;;;;;5.87;1.10;;;14.00;71.90;;;;;;2552258;54;20992;-72
2023/04/13 09:21:41;;;;;;;5.20;1.52;;;14.10;72.00;;;;;;2552279;54;21003;-72
2023/04/13 09:24:07;;;;;;;4.97;1.05;;;14.20;71.60;;;;;;2554399;54;20962;-73
2023/04/13 09:26:46;;;;;;;5.95;1.10;;;14.30;72.00;;;;;;2554787;54;20940;-73
2023/04/13 09:29:16;;;;;;;6.43;1.02;;;14.40;70.70;;;;;;2312734;55;21066;-71
2023/04/13 09:31:43;;;;;;;4.03;1.10;;;14.50;71.50;;;;;;2313647;55;21026;-73
2023/04/13 09:34:11;;;;;;;5.28;1.20;;;14.40;71.20;;;;;;2553406;53;21098;-71
2023/04/13 09:36:40;;;;;;;3.25;0.68;;;14.60;71.00;;;;;;2313320;55;20955;-71
2023/04/13 09:39:27;;;;;;;6.57;1.30;;;14.70;70.50;;;;;;2552862;54;21011;-73
2023/04/13 09:41:54;;;;;;;4.87;1.20;;;14.70;69.70;;;;;;2552709;53;20959;-72
2023/04/13 09:44:23;;;;;;;6.12;1.55;;;14.70;70.10;;;;;;2312909;54;21987;-72
2023/04/13 09:46:59;;;;;;;3.95;0.90;;;14.80;69.80;;;;;;2312431;55;21475;-71
2023/04/13 09:49:41;;;;;;;2.45;0.95;;;14.80;68.30;;;;;;2553205;54;20994;-71
2023/04/13 09:52:23;;;;;;;4.72;1.12;;;14.80;68.30;;;;;;2313357;55;21011;-71
2023/04/13 09:54:52;;;;;;;5.03;1.33;;;14.80;66.90;;;;;;2551397;53;21068;-70
2023/04/13 09:57:26;;;;;;;4.07;0.98;;;14.80;67.60;;;;;;2532955;53;21119;-71
2023/04/13 09:59:52;;;;;;;6.22;1.40;;;14.70;67.50;;;;;;2551780;54;20963;-70
2023/04/13 10:02:19;;;;;;;4.95;1.08;;;14.70;67.70;;;;;;2552329;54;21114;-71
2023/04/13 10:04:45;;;;;;;4.25;0.90;;;14.70;67.60;;;;;;2311727;55;21777;-71
2023/04/13 10:07:12;;;;;;;2.70;0.70;;;14.60;67.70;;;;;;2311100;55;20975;-71
2023/04/13 10:09:40;;;;;;;2.75;0.77;;;14.60;67.80;;;;;;2551656;54;20959;-69
2023/04/13 10:12:09;;;;;;;3.05;0.70;;;14.60;68.60;;;;;;2550856;53;21046;-68
2023/04/13 10:14:38;;;;;;;3.50;0.75;;;14.60;67.90;;;;;;2552275;54;20999;-70
2023/04/13 10:19:44;;;;;;;4.53;1.15;;;14.50;68.00;;;;;;2311225;55;20975;-69
2023/04/13 10:22:11;;;;;;;2.97;0.90;;;14.50;66.60;;;;;;2551199;54;20927;-72
2023/04/13 10:24:38;;;;;;;4.22;1.10;;;14.60;68.30;;;;;;2551640;53;21026;-72
2023/04/13 10:27:15;;;;;;;3.08;0.90;;;14.50;68.00;;;;;;2551110;53;21034;-71
2023/04/13 10:29:41;;;;;;;4.28;0.88;;;14.50;67.00;;;;;;2312080;55;20979;-68
2023/04/13 10:32:19;;;;;;;3.10;0.95;;;14.40;67.80;;;;;;2548954;54;21601;-69
2023/04/13 10:34:46;;;;;;;4.78;1.17;;;14.40;68.00;;;;;;2548996;53;21042;-70
2023/04/13 10:37:56;;;;;;;3.22;0.80;;;14.40;68.10;;;;;;2551587;54;20936;-68
2023/04/13 10:40:22;;;;;;;4.45;0.70;;;14.40;66.60;;;;;;2311941;54;21007;-69
2023/04/13 10:42:50;;;;;;;4.22;0.90;;;14.40;68.40;;;;;;2551737;53;20956;-69
2023/04/13 10:45:27;;;;;;;3.10;0.75;;;14.40;68.40;;;;;;2311381;55;21031;-72
2023/04/13 10:47:53;;;;;;;4.35;0.77;;;14.30;67.50;;;;;;2551744;53;20990;-72
2023/04/13 10:50:22;;;;;;;4.47;0.95;;;14.30;68.10;;;;;;2311480;55;21546;-70
2023/04/13 10:53:00;;;;;;;4.78;1.10;;;14.30;67.90;;;;;;2551419;53;21034;-70
2023/04/13 10:55:27;;;;;;;5.57;1.10;;;14.30;67.20;;;;;;2551217;53;20983;-72
2023/04/13 10:57:56;;;;;;;6.10;1.30;;;14.30;68.00;;;;;;2312352;55;20958;-71
2023/04/13 11:00:24;;;;;;;4.65;0.93;;;14.20;68.00;;;;;;2550296;53;20997;-74
2023/04/13 11:02:56;;;;;;;3.75;0.88;;;14.20;68.00;;;;;;2308598;54;20943;-74
2023/04/13 11:05:23;;;;;;;3.30;1.25;;;14.20;68.00;;;;;;2551164;53;21007;-70
2023/04/13 11:07:49;;;;;;;4.57;1.65;;;14.20;68.30;;;;;;2552137;54;20995;-72
2023/04/13 11:10:27;;;;;;;5.12;1.62;;;14.20;68.70;;;;;;2311339;55;20991;-72
2023/04/13 11:13:00;;;;;;;4.22;1.30;;;14.20;68.80;;;;;;2313108;55;21963;-74
2023/04/13 11:15:28;;;;;;;4.55;1.30;;;14.20;69.20;;;;;;2311919;55;21072;-73
2023/04/13 11:17:58;;;;;;;5.20;1.50;;;14.30;69.30;;;;;;2312522;55;21420;-69
2023/04/13 11:20:37;;;;;;;3.25;1.20;;;14.30;69.20;;;;;;2552158;53;20936;-70
2023/04/13 11:23:05;;;;;;;2.70;1.10;;;14.40;69.00;;;;;;2551594;53;21776;-71
2023/04/13 11:25:32;;;;;;;4.35;0.98;;;14.40;69.90;;;;;;2311698;55;20959;-71
2023/04/13 11:28:00;;;;;;;3.70;1.17;;;14.50;70.40;;;;;;2550686;54;20964;-71
2023/04/13 11:30:27;;;;;;;2.65;0.88;;;14.60;70.40;;;;;;2550711;53;21010;-72
2023/04/13 11:32:58;;;;;;;3.53;0.90;;;14.60;70.30;;;;;;2311781;55;20963;-69
2023/04/13 11:35:24;;;;;;;3.05;0.80;;;14.70;70.10;;;;;;2311500;54;20953;-70
2023/04/13 11:37:58;;;;;;;2.00;0.60;;;14.80;70.20;;;;;;2552117;54;20975;-71
2023/04/13 11:40:26;;;;;;;2.92;0.73;;;14.80;70.00;;;;;;2551620;53;21043;-73
2023/04/13 11:42:57;;;;;;;3.25;0.95;;;14.90;70.00;;;;;;2311936;55;20955;-70
2023/04/13 11:45:27;;;;;;;3.60;0.70;;;14.90;69.80;;;;;;2550631;53;20943;-71
2023/04/13 11:47:54;;;;;;;3.90;1.00;;;14.90;70.10;;;;;;2315774;54;21006;-72
2023/04/13 11:50:23;;;;;;;1.98;0.75;;;15.00;70.10;;;;;;2304366;54;20955;-71
2023/04/13 11:52:51;;;;;;;3.25;0.80;;;15.10;70.00;;;;;;2535887;54;21394;-72
2023/04/13 11:55:18;;;;;;;2.97;0.90;;;15.10;70.50;;;;;;2550975;54;21503;-72
2023/04/13 11:57:48;;;;;;;3.08;0.75;;;15.20;70.60;;;;;;2546321;53;20981;-71
2023/04/13 12:00:25;;;;;;;1.77;0.62;;;15.20;70.80;;;;;;2311521;54;20943;-72
2023/04/13 12:02:54;;;;;;;2.87;0.70;;;15.30;70.20;;;;;;2314046;55;21726;-74
2023/04/13 12:05:27;;;;;;;3.55;0.88;;;15.50;71.30;;;;;;2310818;54;21000;-72
2023/04/13 12:07:54;;;;;;;3.75;1.08;;;15.50;70.90;;;;;;2311753;54;20941;-73
2023/04/13 12:10:28;;;;;;;4.32;1.02;;;15.60;71.20;;;;;;2311440;55;20980;-70
2023/04/13 12:12:59;;;;;;;4.85;1.10;;;15.60;70.40;;;;;;2551366;54;21909;-69
2023/04/13 12:15:34;;;;;;;5.87;1.10;;;15.70;70.90;;;;;;2552255;54;20983;-70
2023/04/13 12:18:13;;;;;;;4.47;0.98;;;15.80;71.20;;;;;;2550958;54;20923;-69
2023/04/13 12:20:44;;;;;;;3.25;1.02;;;15.90;70.90;;;;;;2551787;53;21756;-71
2023/04/13 12:23:22;;;;;;;3.35;1.05;;;15.90;71.20;;;;;;2533493;53;21023;-71
2023/04/13 12:26:01;;;;;;;5.62;1.35;;;16.00;70.30;;;;;;2299257;54;20931;-71
2023/04/13 12:28:37;;;;;;;4.47;0.77;;;16.10;70.60;;;;;;2311521;54;21452;-72
2023/04/13 12:31:08;;;;;;;2.50;0.90;;;16.20;71.50;;;;;;2551438;54;20982;-68
2023/04/13 12:33:36;;;;;;;6.03;1.12;;;16.30;70.60;;;;;;2312104;54;20973;-71
2023/04/13 12:36:04;;;;;;;5.05;1.17;;;16.30;70.70;;;;;;2550472;53;20979;-72
2023/04/13 12:38:30;;;;;;;3.70;1.20;;;16.40;70.60;;;;;;2538811;53;20995;-70
2023/04/13 12:41:00;;;;;;;4.53;1.17;;;16.40;70.40;;;;;;2306884;54;20919;-69
2023/04/13 12:43:26;;;;;;;5.75;1.30;;;16.50;70.40;;;;;;2311670;55;20987;-69
2023/04/13 12:45:53;;;;;;;3.95;0.90;;;16.50;70.30;;;;;;2551836;54;20999;-70
2023/04/13 12:48:20;;;;;;;4.00;0.90;;;16.60;70.70;;;;;;2552044;54;20944;-68
2023/04/13 12:50:46;;;;;;;4.78;1.00;;;16.80;70.70;;;;;;2551387;54;20931;-69
2023/04/13 12:53:13;;;;;;;4.10;1.35;;;16.80;70.80;;;;;;2551548;53;20927;-70
2023/04/13 12:55:40;;;;;;;3.03;0.90;;;16.80;70.50;;;;;;2546860;53;20933;-70
2023/04/13 12:58:07;;;;;;;3.58;1.20;;;16.90;70.40;;;;;;2315665;54;21076;-69